sensor_id;sensor_type;location;lat;lon;timestamp;P1;durP1;ratioP1;P2;durP2;ratioP2
37937;SDS011;23763;48.130;11.602;2024-02-28T00:02:00;23.55;;;20.25;;
37937;SDS011;23763;48.130;11.602;2024-02-28T00:04:26;24.27;;;19.50;;
37937;SDS011;23763;48.130;11.602;2024-02-28T00:06:51;26.45;;;19.48;;
37937;SDS011;23763;48.130;11.602;2024-02-28T00:09:17;28.48;;;20.85;;
37937;SDS011;23763;48.130;11.602;2024-02-28T00:11:43;23.50;;;19.63;;
37937;SDS011;23763;48.130;11.602;2024-02-28T00:14:12;27.33;;;22.38;;
37937;SDS011;23763;48.130;11.602;2024-02-28T00:16:45;23.17;;;19.48;;
37937;SDS011;23763;48.130;11.602;2024-02-28T00:19:11;24.25;;;19.63;;
37937;SDS011;23763;48.130;11.602;2024-02-28T00:21:38;23.60;;;19.80;;
37937;SDS011;23763;48.130;11.602;2024-02-28T00:24:04;22.23;;;19.88;;
37937;SDS011;23763;48.130;11.602;2024-02-28T00:26:31;23.73;;;19.58;;
37937;SDS011;23763;48.130;11.602;2024-02-28T00:28:57;23.25;;;20.00;;
37937;SDS011;23763;48.130;11.602;2024-02-28T00:31:22;25.67;;;20.02;;
37937;SDS011;23763;48.130;11.602;2024-02-28T00:33:48;25.95;;;20.85;;
37937;SDS011;23763;48.130;11.602;2024-02-28T00:36:14;24.30;;;19.58;;
37937;SDS011;23763;48.130;11.602;2024-02-28T00:38:42;23.27;;;19.98;;
37937;SDS011;23763;48.130;11.602;2024-02-28T00:41:08;24.95;;;20.77;;
37937;SDS011;23763;48.130;11.602;2024-02-28T00:43:33;23.20;;;19.77;;
37937;SDS011;23763;48.130;11.602;2024-02-28T00:45:59;23.15;;;19.73;;
37937;SDS011;23763;48.130;11.602;2024-02-28T00:48:25;24.48;;;21.00;;
37937;SDS011;23763;48.130;11.602;2024-02-28T00:50:51;22.15;;;19.63;;
37937;SDS011;23763;48.130;11.602;2024-02-28T00:53:18;22.95;;;19.10;;
37937;SDS011;23763;48.130;11.602;2024-02-28T00:55:43;21.45;;;18.73;;
37937;SDS011;23763;48.130;11.602;2024-02-28T00:58:09;22.27;;;19.88;;
37937;SDS011;23763;48.130;11.602;2024-02-28T01:00:35;23.42;;;19.23;;
37937;SDS011;23763;48.130;11.602;2024-02-28T01:03:01;28.60;;;21.33;;
37937;SDS011;23763;48.130;11.602;2024-02-28T01:05:30;25.98;;;20.27;;
37937;SDS011;23763;48.130;11.602;2024-02-28T01:07:56;22.25;;;19.80;;
37937;SDS011;23763;48.130;11.602;2024-02-28T01:10:21;22.95;;;19.73;;
37937;SDS011;23763;48.130;11.602;2024-02-28T01:12:47;24.00;;;19.42;;
37937;SDS011;23763;48.130;11.602;2024-02-28T01:15:13;21.90;;;18.77;;
37937;SDS011;23763;48.130;11.602;2024-02-28T01:17:39;23.58;;;20.15;;
37937;SDS011;23763;48.130;11.602;2024-02-28T01:20:05;24.00;;;19.92;;
37937;SDS011;23763;48.130;11.602;2024-02-28T01:22:33;25.58;;;19.73;;
37937;SDS011;23763;48.130;11.602;2024-02-28T01:24:59;25.90;;;20.98;;
37937;SDS011;23763;48.130;11.602;2024-02-28T01:27:24;23.70;;;20.40;;
37937;SDS011;23763;48.130;11.602;2024-02-28T01:29:50;21.85;;;19.48;;
37937;SDS011;23763;48.130;11.602;2024-02-28T01:32:17;23.08;;;19.30;;
37937;SDS011;23763;48.130;11.602;2024-02-28T01:34:43;22.65;;;20.25;;
37937;SDS011;23763;48.130;11.602;2024-02-28T01:37:08;23.30;;;20.80;;
37937;SDS011;23763;48.130;11.602;2024-02-28T01:39:34;22.17;;;19.73;;
37937;SDS011;23763;48.130;11.602;2024-02-28T01:41:59;23.13;;;20.23;;
37937;SDS011;23763;48.130;11.602;2024-02-28T01:44:25;23.05;;;19.40;;
37937;SDS011;23763;48.130;11.602;2024-02-28T01:46:51;27.13;;;20.20;;
37937;SDS011;23763;48.130;11.602;2024-02-28T01:49:17;24.05;;;19.73;;
37937;SDS011;23763;48.130;11.602;2024-02-28T01:51:43;25.23;;;20.50;;
37937;SDS011;23763;48.130;11.602;2024-02-28T01:54:09;24.27;;;20.58;;
37937;SDS011;23763;48.130;11.602;2024-02-28T01:56:36;25.88;;;20.88;;
37937;SDS011;23763;48.130;11.602;2024-02-28T01:59:03;25.60;;;20.10;;
37937;SDS011;23763;48.130;11.602;2024-02-28T02:01:28;24.40;;;19.50;;
37937;SDS011;23763;48.130;11.602;2024-02-28T02:03:55;24.63;;;20.15;;
37937;SDS011;23763;48.130;11.602;2024-02-28T02:06:20;24.60;;;20.67;;
37937;SDS011;23763;48.130;11.602;2024-02-28T02:08:47;25.92;;;21.13;;
37937;SDS011;23763;48.130;11.602;2024-02-28T02:11:16;23.23;;;20.58;;
37937;SDS011;23763;48.130;11.602;2024-02-28T02:13:49;23.73;;;20.48;;
37937;SDS011;23763;48.130;11.602;2024-02-28T02:16:15;25.42;;;20.25;;
37937;SDS011;23763;48.130;11.602;2024-02-28T02:18:41;24.48;;;21.05;;
37937;SDS011;23763;48.130;11.602;2024-02-28T02:21:07;28.60;;;22.45;;
37937;SDS011;23763;48.130;11.602;2024-02-28T02:23:36;25.67;;;22.27;;
37937;SDS011;23763;48.130;11.602;2024-02-28T02:26:06;24.40;;;21.55;;
37937;SDS011;23763;48.130;11.602;2024-02-28T02:28:32;24.52;;;21.20;;
37937;SDS011;23763;48.130;11.602;2024-02-28T02:30:58;26.90;;;21.10;;
37937;SDS011;23763;48.130;11.602;2024-02-28T02:33:23;28.38;;;22.40;;
37937;SDS011;23763;48.130;11.602;2024-02-28T02:35:49;26.10;;;22.20;;
37937;SDS011;23763;48.130;11.602;2024-02-28T02:38:15;27.50;;;22.50;;
37937;SDS011;23763;48.130;11.602;2024-02-28T02:40:40;32.10;;;22.60;;
37937;SDS011;23763;48.130;11.602;2024-02-28T02:43:06;29.45;;;22.63;;
37937;SDS011;23763;48.130;11.602;2024-02-28T02:45:32;26.80;;;22.00;;
37937;SDS011;23763;48.130;11.602;2024-02-28T02:47:57;31.58;;;23.88;;
37937;SDS011;23763;48.130;11.602;2024-02-28T02:50:23;26.42;;;21.77;;
37937;SDS011;23763;48.130;11.602;2024-02-28T02:52:48;29.45;;;22.67;;
37937;SDS011;23763;48.130;11.602;2024-02-28T02:55:14;30.30;;;25.23;;
37937;SDS011;23763;48.130;11.602;2024-02-28T02:57:40;28.80;;;22.67;;
37937;SDS011;23763;48.130;11.602;2024-02-28T03:00:08;30.23;;;23.88;;
37937;SDS011;23763;48.130;11.602;2024-02-28T03:02:34;27.95;;;22.38;;
37937;SDS011;23763;48.130;11.602;2024-02-28T03:05:03;27.38;;;22.35;;
37937;SDS011;23763;48.130;11.602;2024-02-28T03:07:29;29.30;;;23.85;;
37937;SDS011;23763;48.130;11.602;2024-02-28T03:09:55;28.88;;;23.20;;
37937;SDS011;23763;48.130;11.602;2024-02-28T03:12:20;28.05;;;23.17;;
37937;SDS011;23763;48.130;11.602;2024-02-28T03:14:47;28.00;;;21.80;;
37937;SDS011;23763;48.130;11.602;2024-02-28T03:17:13;30.27;;;22.92;;
37937;SDS011;23763;48.130;11.602;2024-02-28T03:19:40;28.85;;;23.23;;
37937;SDS011;23763;48.130;11.602;2024-02-28T03:22:06;29.58;;;22.35;;
37937;SDS011;23763;48.130;11.602;2024-02-28T03:24:32;26.48;;;21.45;;
37937;SDS011;23763;48.130;11.602;2024-02-28T03:27:00;31.08;;;22.88;;
37937;SDS011;23763;48.130;11.602;2024-02-28T03:29:26;29.50;;;22.02;;
37937;SDS011;23763;48.130;11.602;2024-02-28T03:31:52;27.90;;;23.70;;
37937;SDS011;23763;48.130;11.602;2024-02-28T03:34:17;31.65;;;24.90;;
37937;SDS011;23763;48.130;11.602;2024-02-28T03:36:44;30.80;;;23.92;;
37937;SDS011;23763;48.130;11.602;2024-02-28T03:39:09;28.63;;;23.33;;
37937;SDS011;23763;48.130;11.602;2024-02-28T03:41:35;30.20;;;23.83;;
37937;SDS011;23763;48.130;11.602;2024-02-28T03:44:01;26.52;;;22.23;;
37937;SDS011;23763;48.130;11.602;2024-02-28T03:46:26;29.00;;;23.35;;
37937;SDS011;23763;48.130;11.602;2024-02-28T03:48:52;30.10;;;22.50;;
37937;SDS011;23763;48.130;11.602;2024-02-28T03:51:18;29.90;;;23.58;;
37937;SDS011;23763;48.130;11.602;2024-02-28T03:53:43;30.63;;;24.75;;
37937;SDS011;23763;48.130;11.602;2024-02-28T03:56:09;29.00;;;22.60;;
37937;SDS011;23763;48.130;11.602;2024-02-28T03:58:36;27.30;;;23.10;;
37937;SDS011;23763;48.130;11.602;2024-02-28T04:01:02;27.77;;;22.75;;
37937;SDS011;23763;48.130;11.602;2024-02-28T04:03:28;27.92;;;23.00;;
37937;SDS011;23763;48.130;11.602;2024-02-28T04:05:54;29.48;;;23.10;;
37937;SDS011;23763;48.130;11.602;2024-02-28T04:08:20;25.75;;;22.08;;
37937;SDS011;23763;48.130;11.602;2024-02-28T04:10:45;30.40;;;24.20;;
37937;SDS011;23763;48.130;11.602;2024-02-28T04:13:11;26.83;;;21.95;;
37937;SDS011;23763;48.130;11.602;2024-02-28T04:15:37;32.92;;;24.13;;
37937;SDS011;23763;48.130;11.602;2024-02-28T04:18:03;30.88;;;22.63;;
37937;SDS011;23763;48.130;11.602;2024-02-28T04:20:29;29.42;;;23.00;;
37937;SDS011;23763;48.130;11.602;2024-02-28T04:22:55;33.58;;;23.48;;
37937;SDS011;23763;48.130;11.602;2024-02-28T04:25:20;28.17;;;23.63;;
37937;SDS011;23763;48.130;11.602;2024-02-28T04:27:46;29.92;;;23.65;;
37937;SDS011;23763;48.130;11.602;2024-02-28T04:30:12;31.70;;;24.30;;
37937;SDS011;23763;48.130;11.602;2024-02-28T04:32:38;30.25;;;23.75;;
37937;SDS011;23763;48.130;11.602;2024-02-28T04:35:04;27.05;;;21.70;;
37937;SDS011;23763;48.130;11.602;2024-02-28T04:37:29;28.92;;;23.35;;
37937;SDS011;23763;48.130;11.602;2024-02-28T04:39:55;34.13;;;23.75;;
37937;SDS011;23763;48.130;11.602;2024-02-28T04:42:21;28.98;;;23.88;;
37937;SDS011;23763;48.130;11.602;2024-02-28T04:44:46;27.30;;;23.05;;
37937;SDS011;23763;48.130;11.602;2024-02-28T04:47:12;32.13;;;25.02;;
37937;SDS011;23763;48.130;11.602;2024-02-28T04:49:38;33.33;;;25.67;;
37937;SDS011;23763;48.130;11.602;2024-02-28T04:52:04;31.92;;;24.13;;
37937;SDS011;23763;48.130;11.602;2024-02-28T04:54:31;30.02;;;24.52;;
37937;SDS011;23763;48.130;11.602;2024-02-28T04:56:57;32.72;;;24.83;;
37937;SDS011;23763;48.130;11.602;2024-02-28T04:59:23;35.30;;;25.73;;
37937;SDS011;23763;48.130;11.602;2024-02-28T05:01:48;31.45;;;25.33;;
37937;SDS011;23763;48.130;11.602;2024-02-28T05:04:14;35.40;;;26.60;;
37937;SDS011;23763;48.130;11.602;2024-02-28T05:06:39;36.60;;;27.02;;
37937;SDS011;23763;48.130;11.602;2024-02-28T05:09:05;31.33;;;24.27;;
37937;SDS011;23763;48.130;11.602;2024-02-28T05:11:31;32.53;;;25.65;;
37937;SDS011;23763;48.130;11.602;2024-02-28T05:13:57;36.63;;;27.67;;
37937;SDS011;23763;48.130;11.602;2024-02-28T05:16:23;33.35;;;25.92;;
37937;SDS011;23763;48.130;11.602;2024-02-28T05:18:48;33.78;;;26.85;;
37937;SDS011;23763;48.130;11.602;2024-02-28T05:21:14;35.70;;;25.85;;
37937;SDS011;23763;48.130;11.602;2024-02-28T05:23:40;35.15;;;26.08;;
37937;SDS011;23763;48.130;11.602;2024-02-28T05:26:05;33.17;;;25.73;;
37937;SDS011;23763;48.130;11.602;2024-02-28T05:28:34;38.30;;;26.80;;
37937;SDS011;23763;48.130;11.602;2024-02-28T05:31:10;33.42;;;26.08;;
37937;SDS011;23763;48.130;11.602;2024-02-28T05:33:50;33.20;;;26.45;;
37937;SDS011;23763;48.130;11.602;2024-02-28T05:36:21;34.20;;;25.50;;
37937;SDS011;23763;48.130;11.602;2024-02-28T05:38:51;35.20;;;26.13;;
37937;SDS011;23763;48.130;11.602;2024-02-28T05:41:17;36.08;;;25.77;;
37937;SDS011;23763;48.130;11.602;2024-02-28T05:43:43;35.63;;;26.08;;
37937;SDS011;23763;48.130;11.602;2024-02-28T05:46:09;32.55;;;25.90;;
37937;SDS011;23763;48.130;11.602;2024-02-28T05:48:35;33.53;;;26.30;;
37937;SDS011;23763;48.130;11.602;2024-02-28T05:51:01;37.80;;;26.90;;
37937;SDS011;23763;48.130;11.602;2024-02-28T05:53:27;33.97;;;26.38;;
37937;SDS011;23763;48.130;11.602;2024-02-28T05:55:57;33.47;;;27.55;;
37937;SDS011;23763;48.130;11.602;2024-02-28T05:58:23;32.95;;;26.73;;
37937;SDS011;23763;48.130;11.602;2024-02-28T06:00:50;32.83;;;25.27;;
37937;SDS011;23763;48.130;11.602;2024-02-28T06:03:16;34.83;;;26.33;;
37937;SDS011;23763;48.130;11.602;2024-02-28T06:05:42;32.78;;;26.20;;
37937;SDS011;23763;48.130;11.602;2024-02-28T06:08:07;34.55;;;26.23;;
37937;SDS011;23763;48.130;11.602;2024-02-28T06:10:33;36.03;;;26.92;;
37937;SDS011;23763;48.130;11.602;2024-02-28T06:12:58;34.00;;;25.10;;
37937;SDS011;23763;48.130;11.602;2024-02-28T06:15:25;31.70;;;25.45;;
37937;SDS011;23763;48.130;11.602;2024-02-28T06:17:51;35.65;;;27.48;;
37937;SDS011;23763;48.130;11.602;2024-02-28T06:20:17;38.10;;;26.50;;
37937;SDS011;23763;48.130;11.602;2024-02-28T06:22:42;33.03;;;26.20;;
37937;SDS011;23763;48.130;11.602;2024-02-28T06:25:08;34.15;;;26.05;;
37937;SDS011;23763;48.130;11.602;2024-02-28T06:27:43;34.58;;;26.20;;
37937;SDS011;23763;48.130;11.602;2024-02-28T06:30:09;30.02;;;25.25;;
37937;SDS011;23763;48.130;11.602;2024-02-28T06:32:34;33.10;;;26.83;;
37937;SDS011;23763;48.130;11.602;2024-02-28T06:35:00;31.70;;;24.75;;
37937;SDS011;23763;48.130;11.602;2024-02-28T06:37:26;31.27;;;25.02;;
37937;SDS011;23763;48.130;11.602;2024-02-28T06:39:53;34.65;;;26.00;;
37937;SDS011;23763;48.130;11.602;2024-02-28T06:42:18;35.33;;;25.48;;
37937;SDS011;23763;48.130;11.602;2024-02-28T06:44:44;37.58;;;25.95;;
37937;SDS011;23763;48.130;11.602;2024-02-28T06:47:09;35.60;;;27.30;;
37937;SDS011;23763;48.130;11.602;2024-02-28T06:49:35;33.72;;;25.52;;
37937;SDS011;23763;48.130;11.602;2024-02-28T06:52:01;38.13;;;27.33;;
37937;SDS011;23763;48.130;11.602;2024-02-28T06:54:27;37.92;;;27.25;;
37937;SDS011;23763;48.130;11.602;2024-02-28T06:56:53;37.03;;;27.95;;
37937;SDS011;23763;48.130;11.602;2024-02-28T06:59:19;38.28;;;27.60;;
37937;SDS011;23763;48.130;11.602;2024-02-28T07:01:45;35.75;;;27.05;;
37937;SDS011;23763;48.130;11.602;2024-02-28T07:04:10;32.72;;;25.70;;
37937;SDS011;23763;48.130;11.602;2024-02-28T07:06:36;37.55;;;27.70;;
37937;SDS011;23763;48.130;11.602;2024-02-28T07:09:02;35.10;;;25.77;;
37937;SDS011;23763;48.130;11.602;2024-02-28T07:11:28;37.75;;;27.17;;
37937;SDS011;23763;48.130;11.602;2024-02-28T07:13:53;38.10;;;27.83;;
37937;SDS011;23763;48.130;11.602;2024-02-28T07:16:19;32.67;;;25.83;;
37937;SDS011;23763;48.130;11.602;2024-02-28T07:18:45;36.92;;;27.30;;
37937;SDS011;23763;48.130;11.602;2024-02-28T07:21:10;36.55;;;27.63;;
37937;SDS011;23763;48.130;11.602;2024-02-28T07:23:42;43.67;;;28.13;;
37937;SDS011;23763;48.130;11.602;2024-02-28T07:26:07;38.63;;;27.42;;
37937;SDS011;23763;48.130;11.602;2024-02-28T07:28:33;41.00;;;27.83;;
37937;SDS011;23763;48.130;11.602;2024-02-28T07:30:59;43.50;;;30.15;;
37937;SDS011;23763;48.130;11.602;2024-02-28T07:33:24;42.08;;;29.15;;
37937;SDS011;23763;48.130;11.602;2024-02-28T07:35:51;48.10;;;30.08;;
37937;SDS011;23763;48.130;11.602;2024-02-28T07:38:18;45.15;;;29.73;;
37937;SDS011;23763;48.130;11.602;2024-02-28T07:40:46;44.47;;;28.60;;
37937;SDS011;23763;48.130;11.602;2024-02-28T07:43:13;41.25;;;27.60;;
37937;SDS011;23763;48.130;11.602;2024-02-28T07:45:39;45.05;;;29.55;;
37937;SDS011;23763;48.130;11.602;2024-02-28T07:48:05;40.22;;;26.58;;
37937;SDS011;23763;48.130;11.602;2024-02-28T07:50:31;42.33;;;28.40;;
37937;SDS011;23763;48.130;11.602;2024-02-28T07:52:56;40.40;;;28.65;;
37937;SDS011;23763;48.130;11.602;2024-02-28T07:55:22;44.60;;;29.65;;
37937;SDS011;23763;48.130;11.602;2024-02-28T07:57:51;41.58;;;28.50;;
37937;SDS011;23763;48.130;11.602;2024-02-28T08:00:18;45.00;;;28.40;;
37937;SDS011;23763;48.130;11.602;2024-02-28T08:02:45;41.28;;;28.08;;
37937;SDS011;23763;48.130;11.602;2024-02-28T08:05:10;43.80;;;30.58;;
37937;SDS011;23763;48.130;11.602;2024-02-28T08:07:36;45.50;;;29.50;;
37937;SDS011;23763;48.130;11.602;2024-02-28T08:10:02;48.38;;;30.50;;
37937;SDS011;23763;48.130;11.602;2024-02-28T08:12:31;46.33;;;28.83;;
37937;SDS011;23763;48.130;11.602;2024-02-28T08:14:57;47.75;;;29.60;;
37937;SDS011;23763;48.130;11.602;2024-02-28T08:17:23;44.42;;;29.38;;
37937;SDS011;23763;48.130;11.602;2024-02-28T08:19:48;45.38;;;30.42;;
37937;SDS011;23763;48.130;11.602;2024-02-28T08:22:14;46.33;;;30.10;;
37937;SDS011;23763;48.130;11.602;2024-02-28T08:24:40;50.50;;;30.90;;
37937;SDS011;23763;48.130;11.602;2024-02-28T08:27:05;42.65;;;29.08;;
37937;SDS011;23763;48.130;11.602;2024-02-28T08:29:31;47.70;;;31.02;;
37937;SDS011;23763;48.130;11.602;2024-02-28T08:31:57;43.90;;;29.45;;
37937;SDS011;23763;48.130;11.602;2024-02-28T08:34:23;40.85;;;29.92;;
37937;SDS011;23763;48.130;11.602;2024-02-28T08:36:49;44.80;;;29.70;;
37937;SDS011;23763;48.130;11.602;2024-02-28T08:39:15;42.15;;;30.00;;
37937;SDS011;23763;48.130;11.602;2024-02-28T08:41:41;44.33;;;29.98;;
37937;SDS011;23763;48.130;11.602;2024-02-28T08:44:06;39.63;;;28.40;;
37937;SDS011;23763;48.130;11.602;2024-02-28T08:46:32;41.10;;;28.70;;
37937;SDS011;23763;48.130;11.602;2024-02-28T08:48:58;48.80;;;29.58;;
37937;SDS011;23763;48.130;11.602;2024-02-28T08:51:23;43.35;;;28.33;;
37937;SDS011;23763;48.130;11.602;2024-02-28T08:53:49;43.90;;;30.27;;
37937;SDS011;23763;48.130;11.602;2024-02-28T08:56:17;42.28;;;28.73;;
37937;SDS011;23763;48.130;11.602;2024-02-28T08:58:42;45.15;;;30.00;;
37937;SDS011;23763;48.130;11.602;2024-02-28T09:01:12;48.20;;;30.65;;
37937;SDS011;23763;48.130;11.602;2024-02-28T09:03:39;46.55;;;30.55;;
37937;SDS011;23763;48.130;11.602;2024-02-28T09:06:05;47.78;;;32.20;;
37937;SDS011;23763;48.130;11.602;2024-02-28T09:08:31;46.58;;;30.20;;
37937;SDS011;23763;48.130;11.602;2024-02-28T09:10:57;48.95;;;31.35;;
37937;SDS011;23763;48.130;11.602;2024-02-28T09:13:23;52.95;;;32.35;;
37937;SDS011;23763;48.130;11.602;2024-02-28T09:15:49;45.05;;;30.45;;
37937;SDS011;23763;48.130;11.602;2024-02-28T09:18:14;43.35;;;29.83;;
37937;SDS011;23763;48.130;11.602;2024-02-28T09:20:41;46.33;;;30.42;;
37937;SDS011;23763;48.130;11.602;2024-02-28T09:23:06;48.85;;;30.85;;
37937;SDS011;23763;48.130;11.602;2024-02-28T09:25:32;49.95;;;32.10;;
37937;SDS011;23763;48.130;11.602;2024-02-28T09:27:59;45.70;;;31.45;;
37937;SDS011;23763;48.130;11.602;2024-02-28T09:30:25;55.95;;;32.80;;
37937;SDS011;23763;48.130;11.602;2024-02-28T09:32:51;51.38;;;32.03;;
37937;SDS011;23763;48.130;11.602;2024-02-28T09:35:17;48.30;;;32.45;;
37937;SDS011;23763;48.130;11.602;2024-02-28T09:37:42;47.63;;;30.40;;
37937;SDS011;23763;48.130;11.602;2024-02-28T09:40:09;49.40;;;31.38;;
37937;SDS011;23763;48.130;11.602;2024-02-28T09:42:35;51.72;;;32.50;;
37937;SDS011;23763;48.130;11.602;2024-02-28T09:45:01;47.13;;;32.05;;
37937;SDS011;23763;48.130;11.602;2024-02-28T09:47:28;53.72;;;33.30;;
37937;SDS011;23763;48.130;11.602;2024-02-28T09:49:54;49.17;;;33.13;;
37937;SDS011;23763;48.130;11.602;2024-02-28T09:52:24;54.30;;;31.60;;
37937;SDS011;23763;48.130;11.602;2024-02-28T09:54:50;49.17;;;31.95;;
37937;SDS011;23763;48.130;11.602;2024-02-28T09:57:15;47.88;;;32.60;;
37937;SDS011;23763;48.130;11.602;2024-02-28T09:59:42;46.72;;;31.38;;
37937;SDS011;23763;48.130;11.602;2024-02-28T10:02:09;46.20;;;33.15;;
37937;SDS011;23763;48.130;11.602;2024-02-28T10:04:36;41.75;;;30.88;;
37937;SDS011;23763;48.130;11.602;2024-02-28T10:07:12;55.47;;;30.13;;
37937;SDS011;23763;48.130;11.602;2024-02-28T10:09:38;50.45;;;30.33;;
37937;SDS011;23763;48.130;11.602;2024-02-28T10:12:04;50.38;;;32.10;;
37937;SDS011;23763;48.130;11.602;2024-02-28T10:14:30;46.13;;;31.67;;
37937;SDS011;23763;48.130;11.602;2024-02-28T10:16:56;45.03;;;31.27;;
37937;SDS011;23763;48.130;11.602;2024-02-28T10:19:23;40.95;;;30.13;;
37937;SDS011;23763;48.130;11.602;2024-02-28T10:21:50;45.78;;;29.95;;
37937;SDS011;23763;48.130;11.602;2024-02-28T10:24:15;44.83;;;30.63;;
37937;SDS011;23763;48.130;11.602;2024-02-28T10:26:44;42.60;;;30.48;;
37937;SDS011;23763;48.130;11.602;2024-02-28T10:29:13;44.55;;;30.65;;
37937;SDS011;23763;48.130;11.602;2024-02-28T10:31:39;43.10;;;30.52;;
37937;SDS011;23763;48.130;11.602;2024-02-28T10:34:06;41.75;;;29.45;;
37937;SDS011;23763;48.130;11.602;2024-02-28T10:36:33;42.08;;;30.70;;
37937;SDS011;23763;48.130;11.602;2024-02-28T10:39:00;41.08;;;30.63;;
37937;SDS011;23763;48.130;11.602;2024-02-28T10:41:27;42.08;;;29.88;;
37937;SDS011;23763;48.130;11.602;2024-02-28T10:43:53;40.40;;;30.13;;
37937;SDS011;23763;48.130;11.602;2024-02-28T10:46:20;43.22;;;28.75;;
37937;SDS011;23763;48.130;11.602;2024-02-28T10:48:46;46.67;;;29.45;;
37937;SDS011;23763;48.130;11.602;2024-02-28T10:51:17;39.42;;;28.65;;
37937;SDS011;23763;48.130;11.602;2024-02-28T10:53:49;39.60;;;27.35;;
37937;SDS011;23763;48.130;11.602;2024-02-28T10:56:19;41.85;;;28.63;;
37937;SDS011;23763;48.130;11.602;2024-02-28T10:58:51;45.35;;;28.65;;
37937;SDS011;23763;48.130;11.602;2024-02-28T11:01:17;38.15;;;28.25;;
37937;SDS011;23763;48.130;11.602;2024-02-28T11:03:44;42.22;;;29.33;;
37937;SDS011;23763;48.130;11.602;2024-02-28T11:06:16;39.97;;;28.67;;
37937;SDS011;23763;48.130;11.602;2024-02-28T11:08:45;38.35;;;28.60;;
37937;SDS011;23763;48.130;11.602;2024-02-28T11:11:13;41.67;;;28.33;;
37937;SDS011;23763;48.130;11.602;2024-02-28T11:13:50;40.97;;;29.45;;
37937;SDS011;23763;48.130;11.602;2024-02-28T11:16:27;40.40;;;27.58;;
37937;SDS011;23763;48.130;11.602;2024-02-28T11:18:56;42.10;;;28.98;;
37937;SDS011;23763;48.130;11.602;2024-02-28T11:21:23;39.95;;;28.35;;
37937;SDS011;23763;48.130;11.602;2024-02-28T11:23:50;36.78;;;27.92;;
37937;SDS011;23763;48.130;11.602;2024-02-28T11:26:17;41.58;;;29.60;;
37937;SDS011;23763;48.130;11.602;2024-02-28T11:28:43;37.30;;;27.77;;
37937;SDS011;23763;48.130;11.602;2024-02-28T11:31:09;36.00;;;28.15;;
37937;SDS011;23763;48.130;11.602;2024-02-28T11:33:35;41.00;;;29.15;;
37937;SDS011;23763;48.130;11.602;2024-02-28T11:36:01;42.67;;;29.70;;
37937;SDS011;23763;48.130;11.602;2024-02-28T11:38:30;45.63;;;30.55;;
37937;SDS011;23763;48.130;11.602;2024-02-28T11:40:56;39.55;;;28.42;;
37937;SDS011;23763;48.130;11.602;2024-02-28T11:43:22;43.88;;;29.95;;
37937;SDS011;23763;48.130;11.602;2024-02-28T11:45:48;42.13;;;30.75;;
37937;SDS011;23763;48.130;11.602;2024-02-28T11:48:14;42.95;;;29.60;;
37937;SDS011;23763;48.130;11.602;2024-02-28T11:50:41;37.00;;;27.63;;
37937;SDS011;23763;48.130;11.602;2024-02-28T11:53:07;34.30;;;27.00;;
37937;SDS011;23763;48.130;11.602;2024-02-28T11:55:33;41.08;;;28.55;;
37937;SDS011;23763;48.130;11.602;2024-02-28T11:57:59;39.22;;;28.35;;
37937;SDS011;23763;48.130;11.602;2024-02-28T12:00:25;41.15;;;30.40;;
37937;SDS011;23763;48.130;11.602;2024-02-28T12:02:51;37.72;;;28.67;;
37937;SDS011;23763;48.130;11.602;2024-02-28T12:05:19;40.35;;;28.63;;
37937;SDS011;23763;48.130;11.602;2024-02-28T12:07:44;40.53;;;29.50;;
37937;SDS011;23763;48.130;11.602;2024-02-28T12:10:10;38.90;;;27.83;;
37937;SDS011;23763;48.130;11.602;2024-02-28T12:12:36;39.60;;;29.45;;
37937;SDS011;23763;48.130;11.602;2024-02-28T12:15:04;39.92;;;29.73;;
37937;SDS011;23763;48.130;11.602;2024-02-28T12:17:30;41.25;;;29.67;;
37937;SDS011;23763;48.130;11.602;2024-02-28T12:19:58;38.50;;;28.63;;
37937;SDS011;23763;48.130;11.602;2024-02-28T12:22:25;41.33;;;29.80;;
37937;SDS011;23763;48.130;11.602;2024-02-28T12:24:50;42.03;;;29.30;;
37937;SDS011;23763;48.130;11.602;2024-02-28T12:27:16;40.90;;;30.42;;
37937;SDS011;23763;48.130;11.602;2024-02-28T12:29:42;39.80;;;29.02;;
37937;SDS011;23763;48.130;11.602;2024-02-28T12:32:08;39.78;;;29.73;;
37937;SDS011;23763;48.130;11.602;2024-02-28T12:34:34;38.30;;;28.92;;
37937;SDS011;23763;48.130;11.602;2024-02-28T12:37:00;41.80;;;28.92;;
37937;SDS011;23763;48.130;11.602;2024-02-28T12:39:29;40.38;;;29.48;;
37937;SDS011;23763;48.130;11.602;2024-02-28T12:41:54;40.42;;;28.70;;
37937;SDS011;23763;48.130;11.602;2024-02-28T12:44:20;42.92;;;28.55;;
37937;SDS011;23763;48.130;11.602;2024-02-28T12:46:46;48.22;;;29.65;;
37937;SDS011;23763;48.130;11.602;2024-02-28T12:49:11;40.80;;;29.58;;
37937;SDS011;23763;48.130;11.602;2024-02-28T12:51:41;44.03;;;28.98;;
37937;SDS011;23763;48.130;11.602;2024-02-28T12:54:11;36.65;;;27.02;;
37937;SDS011;23763;48.130;11.602;2024-02-28T12:56:40;42.90;;;28.80;;
37937;SDS011;23763;48.130;11.602;2024-02-28T12:59:09;40.95;;;27.27;;
37937;SDS011;23763;48.130;11.602;2024-02-28T13:01:35;35.25;;;26.35;;
37937;SDS011;23763;48.130;11.602;2024-02-28T13:04:02;43.15;;;30.23;;
37937;SDS011;23763;48.130;11.602;2024-02-28T13:06:28;38.42;;;27.60;;
37937;SDS011;23763;48.130;11.602;2024-02-28T13:08:54;35.45;;;26.70;;
37937;SDS011;23763;48.130;11.602;2024-02-28T13:11:20;39.85;;;27.48;;
37937;SDS011;23763;48.130;11.602;2024-02-28T13:13:47;42.10;;;28.63;;
37937;SDS011;23763;48.130;11.602;2024-02-28T13:16:14;35.25;;;28.02;;
37937;SDS011;23763;48.130;11.602;2024-02-28T13:18:43;37.28;;;27.17;;
37937;SDS011;23763;48.130;11.602;2024-02-28T13:21:09;34.00;;;27.33;;
37937;SDS011;23763;48.130;11.602;2024-02-28T13:23:35;36.75;;;26.75;;
37937;SDS011;23763;48.130;11.602;2024-02-28T13:26:02;31.77;;;26.65;;
37937;SDS011;23763;48.130;11.602;2024-02-28T13:28:32;37.50;;;27.58;;
37937;SDS011;23763;48.130;11.602;2024-02-28T13:31:01;40.53;;;29.02;;
37937;SDS011;23763;48.130;11.602;2024-02-28T13:33:27;37.08;;;27.55;;
37937;SDS011;23763;48.130;11.602;2024-02-28T13:35:53;40.60;;;26.95;;
37937;SDS011;23763;48.130;11.602;2024-02-28T13:38:19;33.72;;;26.00;;
37937;SDS011;23763;48.130;11.602;2024-02-28T13:40:46;37.42;;;27.23;;
37937;SDS011;23763;48.130;11.602;2024-02-28T13:43:15;34.90;;;27.00;;
37937;SDS011;23763;48.130;11.602;2024-02-28T13:45:45;36.28;;;26.05;;
37937;SDS011;23763;48.130;11.602;2024-02-28T13:50:46;37.20;;;26.30;;
37937;SDS011;23763;48.130;11.602;2024-02-28T13:53:12;34.40;;;26.65;;
37937;SDS011;23763;48.130;11.602;2024-02-28T13:55:39;34.55;;;26.38;;
37937;SDS011;23763;48.130;11.602;2024-02-28T13:58:05;32.42;;;26.02;;
37937;SDS011;23763;48.130;11.602;2024-02-28T14:00:33;37.08;;;25.88;;
37937;SDS011;23763;48.130;11.602;2024-02-28T14:03:00;35.97;;;26.80;;
37937;SDS011;23763;48.130;11.602;2024-02-28T14:05:26;36.67;;;26.85;;
37937;SDS011;23763;48.130;11.602;2024-02-28T14:07:52;34.55;;;25.42;;